createdAt,value
2023-01-27T00:01:33.687Z,99385.59
2023-01-27T00:03:38.558Z,99382.94
2023-01-27T00:05:40.811Z,99383.88
2023-01-27T00:07:47.101Z,99383.13
2023-01-27T00:09:49.262Z,99384.06
2023-01-27T00:12:17.631Z,99393.00
2023-01-27T00:14:19.801Z,99384.81
2023-01-27T00:16:21.988Z,99388.56
2023-01-27T00:18:24.719Z,99392.06
2023-01-27T00:20:45.594Z,99391.13
2023-01-27T00:23:06.283Z,99383.16
2023-01-27T00:25:08.679Z,99385.81
2023-01-27T00:27:11.173Z,99383.06
2023-01-27T00:29:20.660Z,99378.84
2023-01-27T00:31:41.506Z,99381.50
2023-01-27T00:33:49.746Z,99386.75
2023-01-27T00:36:07.231Z,99392.16
2023-01-27T00:38:09.267Z,99388.56
2023-01-27T00:40:13.698Z,99395.03
2023-01-27T00:42:16.527Z,99390.59
2023-01-27T00:44:18.818Z,99386.06
2023-01-27T00:46:23.314Z,99375.38
2023-01-27T00:48:25.559Z,99370.13
2023-01-27T00:50:27.864Z,99370.06
2023-01-27T00:52:30.118Z,99366.69
2023-01-27T00:54:32.398Z,99368.56
2023-01-27T00:56:35.271Z,99364.97
2023-01-27T00:58:37.901Z,99356.16
2023-01-27T01:00:40.592Z,99356.94
2023-01-27T01:02:42.793Z,99359.69
2023-01-27T01:04:45.072Z,99368.50
2023-01-27T01:06:47.237Z,99374.75
2023-01-27T01:08:55.581Z,99371.22
2023-01-27T01:10:58.049Z,99363.38
2023-01-27T01:13:00.262Z,99358.97
2023-01-27T01:15:02.469Z,99351.72
2023-01-27T01:17:04.681Z,99359.72
2023-01-27T01:19:06.904Z,99353.38
2023-01-27T01:21:11.228Z,99367.75
2023-01-27T01:23:14.473Z,99353.44
2023-01-27T01:25:16.746Z,99350.69
2023-01-27T01:27:19.016Z,99347.97
2023-01-27T01:29:21.193Z,99348.03
2023-01-27T01:31:26.037Z,99355.03
2023-01-27T01:33:28.495Z,99364.19
2023-01-27T01:35:30.964Z,99350.84
2023-01-27T01:37:33.303Z,99344.59
2023-01-27T01:39:35.628Z,99349.75
2023-01-27T01:41:37.963Z,99349.06
2023-01-27T01:43:40.183Z,99346.38
2023-01-27T01:45:50.475Z,99342.94
2023-01-27T01:47:52.554Z,99345.44
2023-01-27T01:49:54.943Z,99351.63
2023-01-27T01:52:09.867Z,99342.75
2023-01-27T01:54:14.883Z,99344.50
2023-01-27T01:56:23.021Z,99333.88
2023-01-27T01:58:28.399Z,99334.03
2023-01-27T02:00:33.169Z,99334.00
2023-01-27T02:02:37.175Z,99345.47
2023-01-27T02:04:52.605Z,99335.72
2023-01-27T02:07:10.671Z,99324.38
2023-01-27T02:09:12.878Z,99326.94
2023-01-27T02:11:15.045Z,99325.28
2023-01-27T02:13:17.331Z,99333.22
2023-01-27T02:15:21.707Z,99330.50
2023-01-27T02:17:24.157Z,99325.16
2023-01-27T02:19:49.289Z,99321.69
2023-01-27T02:21:57.230Z,99321.69
2023-01-27T02:24:02.160Z,99324.34
2023-01-27T02:26:25.066Z,99318.97
2023-01-27T02:28:29.515Z,99322.50
2023-01-27T02:30:32.533Z,99318.81
2023-01-27T02:32:34.949Z,99319.81
2023-01-27T02:34:38.473Z,99318.81
2023-01-27T02:36:56.662Z,99312.72
2023-01-27T02:39:02.405Z,99305.63
2023-01-27T02:41:37.698Z,99314.63
2023-01-27T02:43:39.886Z,99308.31
2023-01-27T02:45:42.638Z,99317.16
2023-01-27T02:47:44.937Z,99317.16
2023-01-27T02:49:47.223Z,99309.22
2023-01-27T02:51:49.797Z,99312.84
2023-01-27T02:53:52.220Z,99308.69
2023-01-27T02:55:58.761Z,99305.72
2023-01-27T02:58:00.895Z,99301.31
2023-01-27T03:00:14.537Z,99311.84
2023-01-27T03:02:23.082Z,99307.44
2023-01-27T03:04:25.652Z,99311.91
2023-01-27T03:06:28.098Z,99310.19
2023-01-27T03:08:33.237Z,99304.06
2023-01-27T03:10:35.552Z,99304.06
2023-01-27T03:12:37.919Z,99302.28
2023-01-27T03:14:58.828Z,99305.88
2023-01-27T03:17:19.736Z,99303.34
2023-01-27T03:19:22.419Z,99306.75
2023-01-27T03:21:25.345Z,99297.72
2023-01-27T03:23:28.072Z,99296.88
2023-01-27T03:25:30.109Z,99288.78
2023-01-27T03:27:32.635Z,99301.25
2023-01-27T03:29:59.347Z,99298.59
2023-01-27T03:32:01.988Z,99297.75
2023-01-27T03:34:05.824Z,99289.72
2023-01-27T03:36:32.987Z,99292.41
2023-01-27T03:38:54.129Z,99284.53
2023-01-27T03:41:15.173Z,99292.41
2023-01-27T03:43:36.255Z,99283.59
2023-01-27T03:46:00.227Z,99280.81
2023-01-27T03:48:02.737Z,99283.59
2023-01-27T03:50:11.346Z,99279.09
2023-01-27T03:52:13.670Z,99271.03
2023-01-27T03:54:16.130Z,99275.38
2023-01-27T03:56:20.742Z,99274.63
2023-01-27T03:58:26.085Z,99281.69
2023-01-27T04:00:28.335Z,99280.88
2023-01-27T04:02:52.351Z,99276.78
2023-01-27T04:05:13.403Z,99274.06
2023-01-27T04:07:20.649Z,99262.41
2023-01-27T04:09:28.428Z,99273.06
2023-01-27T04:11:49.527Z,99273.13
2023-01-27T04:13:51.968Z,99269.75
2023-01-27T04:15:57.006Z,99263.63
2023-01-27T04:17:59.541Z,99266.25
2023-01-27T04:20:03.575Z,99267.16
2023-01-27T04:22:06.478Z,99260.13
2023-01-27T04:24:19.291Z,99269.69
2023-01-27T04:26:22.621Z,99267.81
2023-01-27T04:28:41.803Z,99270.69
2023-01-27T04:30:46.045Z,99261.91
2023-01-27T04:32:48.424Z,99263.72
2023-01-27T04:34:51.189Z,99266.38
2023-01-27T04:36:54.256Z,99261.94
2023-01-27T04:38:56.556Z,99256.59
2023-01-27T04:40:58.580Z,99250.56
2023-01-27T04:43:00.627Z,99248.63
2023-01-27T04:45:02.880Z,99256.59
2023-01-27T04:47:05.141Z,99251.13
2023-01-27T04:49:08.280Z,99251.19
2023-01-27T04:51:10.345Z,99253.63
2023-01-27T04:53:12.590Z,99252.59
2023-01-27T04:55:15.693Z,99256.22
2023-01-27T04:57:18.581Z,99247.22
2023-01-27T04:59:20.816Z,99251.66
2023-01-27T05:01:23.310Z,99250.09
2023-01-27T05:03:25.711Z,99245.88
2023-01-27T05:05:27.971Z,99249.06
2023-01-27T05:07:33.141Z,99248.00
2023-01-27T05:09:35.533Z,99248.13
2023-01-27T05:11:37.565Z,99249.00
2023-01-27T05:13:41.057Z,99247.25
2023-01-27T05:15:43.048Z,99253.38
2023-01-27T05:17:45.460Z,99250.78
2023-01-27T05:19:52.183Z,99252.44
2023-01-27T05:21:54.385Z,99249.88
2023-01-27T05:23:56.756Z,99246.47
2023-01-27T05:26:03.947Z,99246.25
2023-01-27T05:28:06.158Z,99249.03
2023-01-27T05:30:08.876Z,99248.16
2023-01-27T05:32:11.359Z,99248.09
2023-01-27T05:34:13.439Z,99249.81
2023-01-27T05:36:17.869Z,99249.81
2023-01-27T05:38:20.274Z,99248.94
2023-01-27T05:40:22.334Z,99253.63
2023-01-27T05:42:24.302Z,99244.63
2023-01-27T05:44:26.229Z,99251.81
2023-01-27T05:46:33.843Z,99252.75
2023-01-27T05:48:39.011Z,99247.47
2023-01-27T05:50:41.177Z,99250.16
2023-01-27T05:52:43.260Z,99247.31
2023-01-27T05:54:45.572Z,99258.91
2023-01-27T05:56:47.656Z,99251.91
2023-01-27T05:58:50.145Z,99251.97
2023-01-27T06:00:53.147Z,99246.53
2023-01-27T06:02:55.294Z,99243.91
2023-01-27T06:04:57.486Z,99245.69
2023-01-27T06:07:01.028Z,99240.38
2023-01-27T06:09:03.619Z,99235.94
2023-01-27T06:11:06.360Z,99245.72
2023-01-27T06:13:08.446Z,99245.72
2023-01-27T06:15:11.914Z,99247.44
2023-01-27T06:17:15.336Z,99243.03
2023-01-27T06:19:17.488Z,99239.38
2023-01-27T06:21:21.151Z,99233.97
2023-01-27T06:23:23.387Z,99237.47
2023-01-27T06:25:25.458Z,99233.25
2023-01-27T06:27:27.646Z,99229.66
2023-01-27T06:29:31.122Z,99225.09
2023-01-27T06:31:33.955Z,99227.84
2023-01-27T06:33:37.041Z,99233.19
2023-01-27T06:35:41.059Z,99233.38
2023-01-27T06:37:45.310Z,99228.19
2023-01-27T06:39:52.195Z,99221.91
2023-01-27T06:41:56.701Z,99228.09
2023-01-27T06:43:58.912Z,99219.22
2023-01-27T06:46:03.003Z,99224.66
2023-01-27T06:48:08.690Z,99223.63
2023-01-27T06:50:12.395Z,99210.31
2023-01-27T06:52:17.083Z,99218.53
2023-01-27T06:54:19.622Z,99214.88
2023-01-27T06:56:21.815Z,99218.38
2023-01-27T06:58:24.126Z,99211.19
2023-01-27T07:00:26.608Z,99218.25
2023-01-27T07:02:28.721Z,99221.81
2023-01-27T07:04:31.375Z,99220.03
2023-01-27T07:06:33.714Z,99214.00
2023-01-27T07:08:35.974Z,99211.25
2023-01-27T07:10:39.187Z,99207.81
2023-01-27T07:12:41.438Z,99206.00
2023-01-27T07:14:43.658Z,99220.19
2023-01-27T07:24:01.463Z,99228.03
2023-01-27T07:26:07.811Z,99228.88
2023-01-27T07:28:18.083Z,99228.88
2023-01-27T07:30:20.862Z,99233.56
2023-01-27T07:32:23.407Z,99225.50
2023-01-27T07:34:25.583Z,99235.28
2023-01-27T07:36:27.675Z,99224.66
2023-01-27T07:38:29.811Z,99230.91
2023-01-27T07:40:32.047Z,99223.00
2023-01-27T07:42:34.106Z,99222.06
2023-01-27T07:44:36.249Z,99221.94
2023-01-27T07:46:38.343Z,99221.91
2023-01-27T07:48:40.824Z,99228.97
2023-01-27T07:50:42.974Z,99223.47
2023-01-27T07:52:44.940Z,99229.66
2023-01-27T07:54:47.222Z,99226.06
2023-01-27T07:56:49.524Z,99229.59
2023-01-27T07:58:56.427Z,99231.47
2023-01-27T08:00:58.523Z,99232.25
2023-01-27T08:03:02.610Z,99243.84
2023-01-27T08:05:04.904Z,99241.09
2023-01-27T08:07:07.386Z,99229.66
2023-01-27T08:09:09.668Z,99239.53
2023-01-27T08:11:14.454Z,99236.88
2023-01-27T08:13:16.687Z,99228.81
2023-01-27T08:15:19.388Z,99223.50
2023-01-27T08:17:21.647Z,99226.22
2023-01-27T08:19:24.090Z,99217.22
2023-01-27T08:21:27.385Z,99224.50
2023-01-27T08:23:29.942Z,99223.63
2023-01-27T08:25:33.017Z,99213.59
2023-01-27T08:27:35.353Z,99209.16
2023-01-27T08:29:40.605Z,99224.97
2023-01-27T08:31:43.004Z,99217.72
2023-01-27T08:33:49.958Z,99223.88
2023-01-27T08:35:54.900Z,99215.97
2023-01-27T08:37:56.933Z,99225.66
2023-01-27T08:39:58.955Z,99222.06
2023-01-27T08:42:03.414Z,99225.56
2023-01-27T08:44:06.157Z,99220.28
2023-01-27T08:46:09.600Z,99225.66
2023-01-27T08:48:12.419Z,99219.41
2023-01-27T08:50:14.772Z,99221.03
2023-01-27T08:52:19.931Z,99229.97
2023-01-27T08:54:22.283Z,99223.75
2023-01-27T08:56:24.712Z,99220.16
2023-01-27T08:58:27.057Z,99225.47
2023-01-27T09:00:29.192Z,99221.88
2023-01-27T09:02:31.911Z,99223.66
2023-01-27T09:04:35.911Z,99226.25
2023-01-27T09:06:38.282Z,99220.84
2023-01-27T09:08:41.672Z,99217.16
2023-01-27T09:10:43.855Z,99212.59
2023-01-27T09:12:46.012Z,99207.94
2023-01-27T09:14:48.176Z,99205.88
2023-01-27T09:16:50.228Z,99209.41
2023-01-27T09:18:52.758Z,99200.34
2023-01-27T09:20:55.170Z,99204.72
2023-01-27T09:22:57.889Z,99200.16
2023-01-27T09:25:00.541Z,99203.66
2023-01-27T09:27:02.676Z,99194.66
2023-01-27T09:29:04.713Z,99202.38
2023-01-27T09:31:09.743Z,99201.41
2023-01-27T09:33:16.056Z,99187.97
2023-01-27T09:35:18.581Z,99178.81
2023-01-27T09:37:21.101Z,99180.44
2023-01-27T09:39:24.309Z,99181.19
2023-01-27T09:41:38.358Z,99178.38
2023-01-27T09:44:08.281Z,99190.72
2023-01-27T09:46:35.152Z,99187.19
2023-01-27T09:48:43.120Z,99184.31
2023-01-27T09:51:25.322Z,99181.41
2023-01-27T09:54:12.049Z,99186.56
2023-01-27T09:56:28.617Z,99174.56
2023-01-27T09:58:42.611Z,99168.81
2023-01-27T10:01:18.631Z,99171.19
2023-01-27T10:03:43.524Z,99165.44
2023-01-27T10:05:53.311Z,99164.22
2023-01-27T10:08:07.656Z,99164.00
2023-01-27T10:10:37.685Z,99167.34
2023-01-27T10:12:56.909Z,99162.53
2023-01-27T10:15:07.781Z,99154.16
2023-01-27T10:17:31.461Z,99149.41
2023-01-27T10:19:51.773Z,99143.69
2023-01-27T10:22:12.806Z,99134.28
2023-01-27T10:24:48.083Z,99132.44
2023-01-27T10:26:54.887Z,99134.81
2023-01-27T10:29:30.865Z,99135.56
2023-01-27T10:31:37.539Z,99137.94
2023-01-27T10:33:54.578Z,99135.28
2023-01-27T10:36:08.000Z,99134.09
2023-01-27T10:38:13.149Z,99132.94
2023-01-27T10:40:50.117Z,99130.19
2023-01-27T10:42:58.601Z,99119.38
2023-01-27T10:45:06.804Z,99108.41
2023-01-27T10:47:16.002Z,99113.56
2023-01-27T10:49:36.074Z,99117.84
2023-01-27T10:51:45.896Z,99120.03
2023-01-27T10:54:04.441Z,99119.81
2023-01-27T10:56:18.258Z,99120.41
2023-01-27T10:58:48.347Z,99119.22
2023-01-27T11:01:19.943Z,99114.56
2023-01-27T11:03:33.904Z,99110.81
2023-01-27T11:05:42.529Z,99094.75
2023-01-27T11:08:00.210Z,99101.63
2023-01-27T11:10:14.386Z,99098.75
2023-01-27T11:12:21.245Z,99101.25
2023-01-27T11:14:32.635Z,99100.34
2023-01-27T11:16:40.617Z,99100.34
2023-01-27T11:18:46.454Z,99098.38
2023-01-27T11:20:55.413Z,99101.13
2023-01-27T11:23:10.089Z,99103.13
2023-01-27T11:25:22.668Z,99092.41
2023-01-27T11:27:33.525Z,99096.00
2023-01-27T11:30:01.582Z,99103.16
2023-01-27T11:32:25.336Z,99108.97
2023-01-27T11:34:36.448Z,99103.25
2023-01-27T11:36:38.977Z,99111.22
2023-01-27T11:38:41.073Z,99103.34
2023-01-27T11:40:45.618Z,99099.63
2023-01-27T11:42:49.641Z,99099.66
2023-01-27T11:44:56.387Z,99085.78
2023-01-27T11:46:58.961Z,99092.13
2023-01-27T11:49:02.682Z,99083.16
2023-01-27T11:51:06.078Z,99070.81
2023-01-27T11:53:21.403Z,99077.50
2023-01-27T11:55:28.103Z,99077.22
2023-01-27T11:57:30.491Z,99080.28
2023-01-27T11:59:37.969Z,99088.22
2023-01-27T12:01:48.446Z,99083.50
2023-01-27T12:04:08.278Z,99092.09
2023-01-27T12:06:27.198Z,99079.56
2023-01-27T12:08:46.837Z,99073.84
2023-01-27T12:10:48.813Z,99081.28
2023-01-27T12:12:51.362Z,99083.75
2023-01-27T12:14:55.003Z,99083.66
2023-01-27T12:17:04.141Z,99092.38
2023-01-27T12:19:22.991Z,99093.91
2023-01-27T12:21:38.439Z,99092.31
2023-01-27T12:23:52.915Z,99085.22
2023-01-27T12:26:09.278Z,99087.22
2023-01-27T12:28:49.719Z,99074.97
2023-01-27T12:30:54.538Z,99075.88
2023-01-27T12:32:59.630Z,99071.31
2023-01-27T12:35:03.251Z,99069.53
2023-01-27T12:37:08.387Z,99062.16
2023-01-27T12:39:39.874Z,99061.38
2023-01-27T12:41:43.235Z,99073.47
2023-01-27T12:44:01.829Z,99063.09
2023-01-27T12:46:08.804Z,99073.63
2023-01-27T12:48:14.003Z,99072.66
2023-01-27T12:50:33.653Z,99078.13
2023-01-27T12:52:35.674Z,99079.88
2023-01-27T12:54:38.028Z,99072.66
2023-01-27T12:56:40.230Z,99083.06
2023-01-27T12:58:55.785Z,99071.66
2023-01-27T13:01:00.282Z,99077.56
2023-01-27T13:03:12.486Z,99074.84
2023-01-27T13:05:19.293Z,99078.38
2023-01-27T13:07:28.478Z,99069.00
2023-01-27T13:09:45.578Z,99068.00
2023-01-27T13:11:47.830Z,99073.16
2023-01-27T13:13:51.540Z,99074.16
2023-01-27T13:16:14.997Z,99075.94
2023-01-27T13:18:23.923Z,99068.88
2023-01-27T13:20:43.413Z,99077.31
2023-01-27T13:23:24.255Z,99085.34
2023-01-27T13:25:39.243Z,99085.28
2023-01-27T13:27:41.727Z,99088.91
2023-01-27T13:29:54.855Z,99089.91
2023-01-27T13:32:04.389Z,99089.19
2023-01-27T13:34:18.905Z,99087.66
2023-01-27T13:36:28.263Z,99089.47
2023-01-27T13:38:52.802Z,99097.81
2023-01-27T13:40:54.796Z,99095.16
2023-01-27T13:43:09.323Z,99095.28
2023-01-27T13:45:22.053Z,99096.84
2023-01-27T13:47:29.189Z,99102.09
2023-01-27T13:49:50.378Z,99099.53
2023-01-27T13:51:52.470Z,99101.28
2023-01-27T13:54:03.911Z,99103.50
2023-01-27T13:56:06.041Z,99106.00
2023-01-27T13:58:39.703Z,99105.59
2023-01-27T14:01:01.876Z,99096.75
2023-01-27T14:03:46.250Z,99099.78
2023-01-27T14:05:57.058Z,99108.56
2023-01-27T14:08:20.724Z,99114.06
2023-01-27T14:10:35.324Z,99112.06
2023-01-27T14:12:58.128Z,99121.09
2023-01-27T14:15:21.189Z,99111.53
2023-01-27T14:17:30.340Z,99106.88
2023-01-27T14:20:01.450Z,99109.81
2023-01-27T14:22:33.895Z,99124.38
2023-01-27T14:24:53.098Z,99122.38
2023-01-27T14:27:10.264Z,99122.28
2023-01-27T14:29:33.900Z,99114.47
2023-01-27T14:31:56.550Z,99109.44
2023-01-27T14:34:34.095Z,99109.44
2023-01-27T14:36:45.083Z,99114.03
2023-01-27T14:39:01.101Z,99117.63
2023-01-27T14:41:18.322Z,99125.66
2023-01-27T14:43:39.559Z,99118.88
2023-01-27T14:45:50.907Z,99122.44
2023-01-27T14:48:17.385Z,99121.69
2023-01-27T14:50:26.610Z,99124.19
2023-01-27T14:53:20.795Z,99130.44
2023-01-27T14:55:33.511Z,99129.72
2023-01-27T14:57:55.984Z,99133.13
2023-01-27T15:00:33.178Z,99140.81
2023-01-27T15:03:03.096Z,99146.13
2023-01-27T15:05:31.164Z,99145.03
2023-01-27T15:07:41.854Z,99151.63
2023-01-27T15:10:10.793Z,99154.53
2023-01-27T15:12:37.944Z,99160.75
2023-01-27T15:14:59.374Z,99169.59
2023-01-27T15:17:14.773Z,99170.47
2023-01-27T15:19:44.809Z,99165.53
2023-01-27T15:22:34.144Z,99176.13
2023-01-27T15:24:59.348Z,99174.69
2023-01-27T15:27:04.333Z,99171.75
2023-01-27T15:29:07.552Z,99172.72
2023-01-27T15:31:16.733Z,99174.81
2023-01-27T15:33:53.003Z,99181.84
2023-01-27T15:36:27.119Z,99175.97
2023-01-27T15:38:34.629Z,99178.16
2023-01-27T15:41:21.505Z,99185.13
2023-01-27T15:43:25.663Z,99183.94
2023-01-27T15:45:38.029Z,99187.47
2023-01-27T15:47:41.882Z,99184.78
2023-01-27T15:49:48.540Z,99183.94
2023-01-27T15:51:54.800Z,99185.84
2023-01-27T15:54:00.240Z,99181.38
2023-01-27T15:56:03.230Z,99192.06
2023-01-27T15:58:54.840Z,99194.34
2023-01-27T16:00:58.869Z,99193.09
2023-01-27T16:03:04.904Z,99203.00
2023-01-27T16:05:27.133Z,99207.28
2023-01-27T16:07:32.951Z,99200.69
2023-01-27T16:09:46.126Z,99211.03
2023-01-27T16:12:02.615Z,99201.28
2023-01-27T16:14:17.437Z,99198.72
2023-01-27T16:16:19.524Z,99196.66
2023-01-27T16:18:26.469Z,99195.13
2023-01-27T16:20:54.758Z,99200.63
2023-01-27T16:23:02.808Z,99201.72
2023-01-27T16:25:17.677Z,99207.00
2023-01-27T16:27:52.224Z,99209.69
2023-01-27T16:30:22.548Z,99203.31
2023-01-27T16:32:35.696Z,99208.03
2023-01-27T16:34:46.853Z,99208.31
2023-01-27T16:37:02.150Z,99202.31
2023-01-27T16:39:26.082Z,99207.56
2023-01-27T16:41:30.957Z,99198.50
2023-01-27T16:43:43.611Z,99208.44
2023-01-27T16:45:49.270Z,99204.56
2023-01-27T16:48:05.647Z,99207.63
2023-01-27T16:50:45.889Z,99209.56
2023-01-27T16:52:48.072Z,99204.28
2023-01-27T16:54:52.484Z,99209.63
2023-01-27T16:56:55.150Z,99206.00
2023-01-27T16:59:02.140Z,99200.75
2023-01-27T17:01:04.928Z,99205.09
2023-01-27T17:03:16.515Z,99198.81
2023-01-27T17:05:19.960Z,99197.94
2023-01-27T17:07:22.623Z,99206.88
2023-01-27T17:09:32.139Z,99210.69
2023-01-27T17:11:34.309Z,99206.31
2023-01-27T17:14:01.305Z,99206.59
2023-01-27T17:16:06.467Z,99209.41
2023-01-27T17:18:11.960Z,99213.03
2023-01-27T17:20:23.565Z,99212.81
2023-01-27T17:22:42.452Z,99210.38
2023-01-27T17:24:52.970Z,99208.50
2023-01-27T17:27:05.794Z,99212.28
2023-01-27T17:29:07.698Z,99214.72
2023-01-27T17:31:17.832Z,99221.88
2023-01-27T17:33:22.023Z,99219.41
2023-01-27T17:35:30.769Z,99221.13
2023-01-27T17:37:33.478Z,99217.50
2023-01-27T17:39:38.123Z,99213.91
2023-01-27T17:41:40.128Z,99212.28
2023-01-27T17:43:44.899Z,99214.84
2023-01-27T17:45:47.617Z,99217.56
2023-01-27T17:47:50.525Z,99214.94
2023-01-27T17:49:52.624Z,99222.94
2023-01-27T17:51:59.579Z,99218.47
2023-01-27T17:54:13.624Z,99218.38
2023-01-27T17:56:23.149Z,99228.22
2023-01-27T17:58:29.531Z,99226.41
2023-01-27T18:00:40.325Z,99229.03
2023-01-27T18:02:54.104Z,99226.66
2023-01-27T18:05:04.520Z,99227.63
2023-01-27T18:07:06.594Z,99228.41
2023-01-27T18:09:27.106Z,99227.63
2023-01-27T18:11:32.197Z,99230.88
2023-01-27T18:13:37.407Z,99233.50
2023-01-27T18:15:42.855Z,99239.22
2023-01-27T18:17:57.709Z,99240.88
2023-01-27T18:19:59.871Z,99239.88
2023-01-27T18:22:07.308Z,99244.47
2023-01-27T18:24:21.308Z,99244.44
2023-01-27T18:26:43.226Z,99255.22
2023-01-27T18:28:49.053Z,99260.41
2023-01-27T18:30:51.556Z,99264.91
2023-01-27T18:33:01.826Z,99263.19
2023-01-27T18:35:27.949Z,99262.03
2023-01-27T18:37:33.291Z,99258.63
2023-01-27T18:39:38.773Z,99249.84
2023-01-27T18:41:47.287Z,99255.22
2023-01-27T18:43:49.501Z,99260.28
2023-01-27T18:45:51.477Z,99256.72
2023-01-27T18:47:54.172Z,99253.22
2023-01-27T18:49:56.399Z,99262.06
2023-01-27T18:51:58.354Z,99255.69
2023-01-27T18:54:00.560Z,99260.25
2023-01-27T18:56:04.549Z,99264.59
2023-01-27T18:58:06.684Z,99261.03
2023-01-27T19:00:11.926Z,99262.16
2023-01-27T19:02:18.480Z,99268.44
2023-01-27T19:04:22.036Z,99271.22
2023-01-27T19:06:24.121Z,99273.06
2023-01-27T19:08:27.363Z,99275.72
2023-01-27T19:10:32.334Z,99277.59
2023-01-27T19:12:34.478Z,99273.03
2023-01-27T19:14:37.096Z,99269.50
2023-01-27T19:16:39.194Z,99273.00
2023-01-27T19:18:42.197Z,99278.41
2023-01-27T19:20:44.264Z,99275.94
2023-01-27T19:22:47.875Z,99282.22
2023-01-27T19:24:50.740Z,99274.16
2023-01-27T19:26:52.759Z,99277.78
2023-01-27T19:28:57.359Z,99279.50
2023-01-27T19:31:00.279Z,99283.88
2023-01-27T19:33:03.203Z,99277.59
2023-01-27T19:35:05.865Z,99289.91
2023-01-27T19:37:18.581Z,99284.66
2023-01-27T19:39:20.759Z,99284.75
2023-01-27T19:41:22.908Z,99292.78
2023-01-27T19:43:24.950Z,99281.97
2023-01-27T19:45:28.325Z,99288.97
2023-01-27T19:47:30.236Z,99287.25
2023-01-27T19:49:32.300Z,99288.22
2023-01-27T19:51:34.444Z,99297.91
2023-01-27T19:53:38.660Z,99286.59
2023-01-27T19:55:41.326Z,99290.13
2023-01-27T19:57:44.606Z,99284.19
2023-01-27T19:59:46.862Z,99285.88
2023-01-27T20:01:49.147Z,99287.63
2023-01-27T20:03:52.365Z,99295.72
2023-01-27T20:05:54.493Z,99287.63
2023-01-27T20:07:58.602Z,99286.03
2023-01-27T20:10:00.673Z,99289.66
2023-01-27T20:12:02.734Z,99287.06
2023-01-27T20:14:19.384Z,99294.47
2023-01-27T20:16:22.775Z,99295.19
2023-01-27T20:18:24.874Z,99293.38
2023-01-27T20:20:27.649Z,99296.03
2023-01-27T20:22:30.003Z,99294.31
2023-01-27T20:24:32.246Z,99295.19
2023-01-27T20:26:35.034Z,99299.47
2023-01-27T20:28:40.003Z,99294.16
2023-01-27T20:30:43.317Z,99299.75
2023-01-27T20:32:45.590Z,99297.06
2023-01-27T20:34:47.985Z,99305.16
2023-01-27T20:36:49.968Z,99298.19
2023-01-27T20:38:53.088Z,99303.44
2023-01-27T20:40:55.157Z,99296.22
2023-01-27T20:42:57.375Z,99292.56
2023-01-27T20:44:59.503Z,99291.84
2023-01-27T20:47:01.635Z,99292.00
2023-01-27T20:49:03.688Z,99288.38
2023-01-27T20:51:09.384Z,99300.69
2023-01-27T20:53:11.401Z,99299.00
2023-01-27T20:55:14.933Z,99295.47
2023-01-27T20:57:20.357Z,99296.31
2023-01-27T20:59:22.399Z,99297.19
2023-01-27T21:01:24.641Z,99294.41
2023-01-27T21:03:27.002Z,99294.47
2023-01-27T21:05:29.085Z,99293.63
2023-01-27T21:07:31.273Z,99295.63
2023-01-27T21:09:33.240Z,99292.97
2023-01-27T21:11:35.299Z,99291.22
2023-01-27T21:13:37.851Z,99294.00
2023-01-27T21:15:47.437Z,99292.19
2023-01-27T21:17:50.295Z,99294.78
2023-01-27T21:19:52.506Z,99288.59
2023-01-27T21:21:54.790Z,99292.03
2023-01-27T21:24:00.599Z,99292.88
2023-01-27T21:26:09.677Z,99300.00
2023-01-27T21:28:11.868Z,99295.34
2023-01-27T21:30:14.241Z,99301.66
2023-01-27T21:32:16.457Z,99302.59
2023-01-27T21:34:18.544Z,99307.06
2023-01-27T21:36:20.545Z,99299.84
2023-01-27T21:38:22.689Z,99300.69
2023-01-27T21:40:25.288Z,99301.56
2023-01-27T21:42:46.388Z,99291.84
2023-01-27T21:45:07.040Z,99302.59
2023-01-27T21:47:11.778Z,99306.28
2023-01-27T21:49:14.559Z,99302.88
2023-01-27T21:51:17.082Z,99310.69
2023-01-27T21:53:19.183Z,99305.34
2023-01-27T21:55:27.404Z,99308.13
2023-01-27T21:57:29.899Z,99301.72
2023-01-27T21:59:34.433Z,99307.88
2023-01-27T22:01:36.627Z,99303.44
2023-01-27T22:03:38.941Z,99304.47
2023-01-27T22:05:41.238Z,99303.47
2023-01-27T22:07:43.283Z,99303.44
2023-01-27T22:09:45.642Z,99307.88
2023-01-27T22:11:48.085Z,99307.88
2023-01-27T22:13:50.222Z,99308.81
2023-01-27T22:15:52.616Z,99309.72
2023-01-27T22:17:55.857Z,99304.31
2023-01-27T22:19:57.951Z,99307.88
2023-01-27T22:22:00.048Z,99312.25
2023-01-27T22:24:02.814Z,99303.44
2023-01-27T22:26:09.200Z,99308.88
2023-01-27T22:28:11.359Z,99309.56
2023-01-27T22:30:15.883Z,99305.25
2023-01-27T22:32:18.211Z,99303.44
2023-01-27T22:34:20.752Z,99304.31
2023-01-27T22:36:23.313Z,99305.19
2023-01-27T22:38:25.636Z,99308.75
2023-01-27T22:40:28.353Z,99304.31
2023-01-27T22:42:30.579Z,99307.81
2023-01-27T22:44:32.927Z,99300.50
2023-01-27T22:46:35.328Z,99303.34
2023-01-27T22:48:37.806Z,99298.00
2023-01-27T22:50:40.849Z,99295.56
2023-01-27T22:52:43.109Z,99294.31
2023-01-27T22:54:45.536Z,99299.00
2023-01-27T22:56:47.923Z,99295.38
2023-01-27T22:58:50.296Z,99297.09
2023-01-27T23:00:52.927Z,99282.00
2023-01-27T23:02:55.133Z,99294.66
2023-01-27T23:04:57.873Z,99288.28
2023-01-27T23:07:00.083Z,99290.22
2023-01-27T23:09:02.205Z,99293.63
2023-01-27T23:11:06.899Z,99288.38
2023-01-27T23:13:09.052Z,99294.47
2023-01-27T23:15:12.335Z,99290.97
2023-01-27T23:17:15.016Z,99291.16
2023-01-27T23:19:17.673Z,99296.47
2023-01-27T23:21:19.655Z,99292.88
2023-01-27T23:23:23.439Z,99293.72
2023-01-27T23:25:25.907Z,99290.09
2023-01-27T23:27:29.094Z,99291.72
2023-01-27T23:29:31.788Z,99294.47
2023-01-27T23:31:34.316Z,99293.63
2023-01-27T23:33:41.128Z,99295.72
2023-01-27T23:35:44.035Z,99294.00
2023-01-27T23:37:46.332Z,99297.44
2023-01-27T23:39:49.906Z,99308.03
2023-01-27T23:41:52.359Z,99302.91
2023-01-27T23:43:56.317Z,99303.75
2023-01-27T23:45:59.212Z,99295.16
2023-01-27T23:48:01.473Z,99306.66
2023-01-27T23:50:06.275Z,99300.28
2023-01-27T23:52:09.209Z,99295.06
2023-01-27T23:54:11.379Z,99301.31
2023-01-27T23:56:16.296Z,99306.41
2023-01-27T23:58:19.156Z,99296.59
